logo
Rechercher aéroport 
image banner adimage banner adimage banner ad
image banner ad

FALQ - El Mirrador

Situé à Ardmore, South Africa

ICAO - FALQ, IATA -

Données fournies par Airmate  

Information générale

Coordonnées: S28°59'10" E29°28'48"
Élévation : 3897 feet MSL.
 
Voir autres Aéroports à Kwazulu-Natal

Données opérationnelles

Special qualification required
Heure actuelle UTC:
Heure actuelle locale:
Météo à : - ( 0 km )
METAR: UNOO 242043Z 22006G14MPS 9999 -SHRA BKN040CB 21/16 Q1003 R25/290150 NOSIG RMK QFE744
Voir NOTAMs / SUP AIP / TFR affectant cet aéroport [VIEW]
Fréquences de communication: [VIEW]

Pistes:

Identifiant RWYQFULongueur (ft)Largeur (ft)SurfaceLDA (ft)
0550°269082SAND
23230°269082SAND

Coordonnées de l'aéroport

Adresse: Ardmore South Africa

Vue satellite de FALQ